Волга Кантри Клаб

Карта отелей и гостиниц, располагающихся рядом с аэропортом Волга Кантри Клаб :

Волга Кантри Клаб Тверская область 56° 12' 16.92" N, 34° 39' 59.8212" E
Волга Кантри Клаб Тверская область 56° 12' 16.92" N, 34° 39' 59.8212" E
Код аэродрома ИКАО
HD3G
Код аэродрома RU
ХД3Г
Координаты
N56.20470° E034.66662°
Превышение над уровнем моря
156
Основная полоса
15/33
Курс магнитный
146,8/326,8
Длина основной ВПП
40
Ширина основной ВПП
40
Покрытие основной ВПП
Твёрдое
Освещение ВПП
По запросу
Тип: 
Вертодром
Класс аэродрома: 
Принадлежность: 
АОН
Статус: 
Действующий
Сайт: 
http://www.volgacountryclub.ru/
E-mail аэродрома: 
sales.volga@mail.ru
Страна: 
Россия
Регион: 
Тверская область
Город: 
Дополнительная информация: 
Оператор: нет данных. Оборудована огнями ночной маркировки (комплект ЭССО).


Найти трансфер

С помощью этой формы Вы можете найти трансфер из аэропорта Волга Кантри Клаб в город, аэропорт или вокзал:

Погода в аэропортах:

Авиационная погода в Чимкенте

Регион: 
Погода METAR: 
UAII 212300Z 21006MPS 9999 -SHRA BKN046CB 15/13 Q1012 NOSIG RMK QFE722/0963
Время наблюдения
2022-05-21T23:00:00Z
Температура C
15.0
Точка росы
13.0
Направление ветра
210
Скорость ветра (узлы)
12
Метео видимость
6.21
Облачность
BKN
Нижняя граница облачности (футы)
4600
Явления погоды
-SHRA
Условия полета
VFR
Аэропорт подробнее: 
BKN – значительная (рассеянная, разорванная) облачность;
-SHRA - слабый ливневой дождь;

Авиационная погода в Екатеринбурге

Регион: 
Погода METAR: 
USSS 212300Z 30007MPS 9999 -SHRA OVC007CB 03/02 Q0991 R26R/290335 NOSIG RMK QFE723/0964
Время наблюдения
2022-05-21T23:00:00Z
Температура C
3.0
Точка росы
2.0
Направление ветра
300
Скорость ветра (узлы)
14
Метео видимость
6.21
Облачность
OVC
Нижняя граница облачности (футы)
700
Явления погоды
-SHRA
Условия полета
IFR
Аэропорт подробнее: 
OVC – сплошная облачность;
-SHRA - слабый ливневой дождь;

Авиационная погода в Актобе

Регион: 
Погода METAR: 
UATT 212300Z 29009MPS 9000 -RA BKN008 OVC036 06/04 Q1003 NOSIG RMK QFE733/0977
Время наблюдения
2022-05-21T23:00:00Z
Температура C
6.0
Точка росы
4.0
Направление ветра
290
Скорость ветра (узлы)
17
Метео видимость
5.59
Облачность
BKN
OVC
Нижняя граница облачности (футы)
800
3600
Явления погоды
-RA
Условия полета
IFR
Аэропорт подробнее: 
BKN – значительная (рассеянная, разорванная) облачность; OVC – сплошная облачность;
-RA - слабый дождь;

Авиационная погода в Рощино

Регион: 
Погода METAR: 
USTR 212300Z 17005MPS 9999 -SHRA BKN016CB 09/08 Q0989 R21/290060 R30/////99 TEMPO 2100 -SHRA BR BKN004 BKN016CB
Время наблюдения
2022-05-21T23:00:00Z
Температура C
9.0
Точка росы
8.0
Направление ветра
170
Скорость ветра (узлы)
10
Метео видимость
6.21
Облачность
BKN
Нижняя граница облачности (футы)
1600
Явления погоды
-SHRA
Условия полета
MVFR
Аэропорт подробнее: 
BKN – значительная (рассеянная, разорванная) облачность;
-SHRA - слабый ливневой дождь;